createdAt,value
2022-08-07T00:00:51.406Z,13.69
2022-08-07T00:03:17.815Z,13.65
2022-08-07T00:05:44.599Z,13.68
2022-08-07T00:08:12.740Z,13.60
2022-08-07T00:10:48.289Z,13.57
2022-08-07T00:13:25.855Z,13.55
2022-08-07T00:15:53.835Z,13.47
2022-08-07T00:18:27.536Z,13.48
2022-08-07T00:21:01.838Z,13.46
2022-08-07T00:23:31.905Z,13.37
2022-08-07T00:26:06.912Z,13.29
2022-08-07T00:28:46.225Z,13.31
2022-08-07T00:31:22.202Z,13.30
2022-08-07T00:33:48.860Z,13.28
2022-08-07T00:36:16.786Z,13.26
2022-08-07T00:38:43.469Z,13.22
2022-08-07T00:41:15.096Z,13.22
2022-08-07T00:44:00.496Z,13.10
2022-08-07T00:46:29.686Z,13.07
2022-08-07T00:48:57.583Z,13.05
2022-08-07T00:51:57.112Z,13.03
2022-08-07T00:54:19.668Z,12.99
2022-08-07T00:56:46.411Z,12.95
2022-08-07T00:59:16.765Z,12.94
2022-08-07T01:01:46.772Z,12.91
2022-08-07T01:04:24.865Z,12.89
2022-08-07T01:06:51.646Z,12.85
2022-08-07T01:09:51.185Z,12.78
2022-08-07T01:12:29.191Z,12.70
2022-08-07T01:14:57.110Z,12.62
2022-08-07T01:17:29.267Z,12.58
2022-08-07T01:20:01.872Z,12.53
2022-08-07T01:22:30.877Z,12.57
2022-08-07T01:24:58.796Z,12.61
2022-08-07T01:27:25.368Z,12.59
2022-08-07T01:29:59.283Z,12.58
2022-08-07T01:32:27.701Z,12.52
2022-08-07T01:34:55.810Z,12.45
2022-08-07T01:37:23.827Z,12.38
2022-08-07T01:39:50.405Z,12.39
2022-08-07T01:42:38.597Z,12.37
2022-08-07T01:45:09.757Z,12.36
2022-08-07T01:48:18.155Z,12.34
2022-08-07T01:50:30.665Z,12.36
2022-08-07T01:52:59.143Z,12.35
2022-08-07T01:55:29.450Z,12.27
2022-08-07T01:58:06.744Z,12.31
2022-08-07T02:01:10.401Z,12.26
2022-08-07T02:03:51.029Z,12.23
2022-08-07T02:06:31.591Z,12.21
2022-08-07T02:09:03.778Z,12.19
2022-08-07T02:12:04.061Z,12.18
2022-08-07T02:14:35.817Z,12.20
2022-08-07T02:17:07.107Z,12.14
2022-08-07T02:20:07.508Z,12.12
2022-08-07T02:22:25.666Z,12.14
2022-08-07T02:24:54.142Z,12.09
2022-08-07T02:27:22.873Z,11.99
2022-08-07T02:29:54.139Z,12.02
2022-08-07T02:32:29.846Z,11.97
2022-08-07T02:34:58.620Z,12.02
2022-08-07T02:37:28.577Z,11.97
2022-08-07T02:40:29.863Z,11.98
2022-08-07T02:42:50.639Z,11.98
2022-08-07T02:46:00.460Z,11.96
2022-08-07T02:48:10.068Z,11.93
2022-08-07T02:50:41.778Z,11.92
2022-08-07T02:53:11.289Z,11.93
2022-08-07T02:56:03.251Z,11.95
2022-08-07T02:58:33.433Z,11.89
2022-08-07T03:01:02.157Z,11.75
2022-08-07T03:03:49.643Z,11.76
2022-08-07T03:06:26.193Z,11.70
2022-08-07T03:09:01.600Z,11.68
2022-08-07T03:11:29.423Z,11.65
2022-08-07T03:14:02.236Z,11.64
2022-08-07T03:16:30.622Z,11.56
2022-08-07T03:18:59.460Z,11.56
2022-08-07T03:21:27.900Z,11.54
2022-08-07T03:24:19.600Z,11.56
2022-08-07T03:26:51.199Z,11.54
2022-08-07T03:29:29.637Z,11.53
2022-08-07T03:31:57.308Z,11.49
2022-08-07T03:34:28.198Z,11.46
2022-08-07T03:36:57.350Z,11.50
2022-08-07T03:39:59.851Z,11.50
2022-08-07T03:42:15.169Z,11.49
2022-08-07T03:44:42.354Z,11.43
2022-08-07T03:47:14.839Z,11.39
2022-08-07T03:49:48.007Z,11.37
2022-08-07T03:52:26.360Z,11.33
2022-08-07T03:54:57.402Z,11.26
2022-08-07T03:58:34.574Z,11.27
2022-08-07T04:00:14.230Z,11.28
2022-08-07T04:02:41.521Z,11.17
2022-08-07T04:05:09.035Z,11.10
2022-08-07T04:07:42.503Z,11.11
2022-08-07T04:10:15.406Z,11.08
2022-08-07T04:12:47.271Z,11.09
2022-08-07T04:15:15.779Z,11.08
2022-08-07T04:18:56.543Z,11.09
2022-08-07T04:20:31.144Z,11.11
2022-08-07T04:23:01.938Z,11.14
2022-08-07T04:25:38.993Z,11.12
2022-08-07T04:28:09.946Z,11.17
2022-08-07T04:30:55.402Z,11.19
2022-08-07T04:33:26.272Z,11.15
2022-08-07T04:35:54.457Z,11.12
2022-08-07T04:38:22.041Z,11.21
2022-08-07T04:40:51.991Z,11.26
2022-08-07T04:44:11.264Z,11.27
2022-08-07T04:46:34.713Z,11.29
2022-08-07T04:49:24.549Z,11.30
2022-08-07T04:52:19.680Z,11.34
2022-08-07T04:55:01.590Z,11.35
2022-08-07T04:58:11.902Z,11.40
2022-08-07T05:00:39.149Z,11.41
2022-08-07T05:03:59.713Z,11.41
2022-08-07T05:06:20.132Z,11.44
2022-08-07T05:09:04.824Z,11.47
2022-08-07T05:11:57.289Z,11.49
2022-08-07T05:14:55.283Z,11.52
2022-08-07T05:17:51.643Z,11.56
2022-08-07T05:20:10.022Z,11.57
2022-08-07T05:22:39.073Z,11.59
2022-08-07T05:25:08.725Z,11.69
2022-08-07T05:28:02.574Z,11.72
2022-08-07T05:30:32.330Z,11.89
2022-08-07T05:33:03.216Z,11.94
2022-08-07T05:35:33.429Z,12.03
2022-08-07T05:38:09.018Z,12.09
2022-08-07T05:40:50.740Z,12.13
2022-08-07T05:43:19.331Z,12.17
2022-08-07T05:46:06.370Z,12.20
2022-08-07T05:48:33.994Z,12.31
2022-08-07T05:51:01.559Z,12.37
2022-08-07T05:54:13.221Z,12.41
2022-08-07T05:56:19.074Z,12.55
2022-08-07T05:58:49.231Z,12.57
2022-08-07T06:01:21.042Z,12.71
2022-08-07T06:03:54.016Z,12.81
2022-08-07T06:06:29.426Z,12.89
2022-08-07T06:08:57.713Z,13.01
2022-08-07T06:11:25.813Z,13.09
2022-08-07T06:14:11.763Z,13.22
2022-08-07T06:16:40.263Z,13.34
2022-08-07T06:19:08.443Z,13.44
2022-08-07T06:22:14.300Z,13.63
2022-08-07T06:24:45.385Z,13.72
2022-08-07T06:27:59.718Z,13.80
2022-08-07T06:30:32.405Z,13.78
2022-08-07T06:32:57.474Z,13.84
2022-08-07T06:35:23.843Z,13.90
2022-08-07T06:37:57.249Z,14.02
2022-08-07T06:40:35.038Z,14.08
2022-08-07T06:43:03.450Z,14.21
2022-08-07T06:45:33.791Z,14.29
2022-08-07T06:48:02.860Z,14.37
2022-08-07T06:50:31.744Z,14.49
2022-08-07T06:53:00.885Z,14.57
2022-08-07T06:55:47.977Z,14.83
2022-08-07T06:58:27.421Z,14.98
2022-08-07T07:00:56.034Z,15.04
2022-08-07T07:03:26.384Z,15.08
2022-08-07T07:06:11.302Z,15.26
2022-08-07T07:08:39.932Z,15.28
2022-08-07T07:12:08.495Z,15.36
2022-08-07T07:14:02.828Z,15.56
2022-08-07T07:16:45.231Z,15.70
2022-08-07T07:19:55.895Z,15.81
2022-08-07T07:22:33.776Z,15.94
2022-08-07T07:25:14.214Z,16.19
2022-08-07T07:27:56.147Z,16.33
2022-08-07T07:30:39.756Z,16.53
2022-08-07T07:33:11.617Z,16.63
2022-08-07T07:35:43.718Z,16.71
2022-08-07T07:38:12.786Z,16.86
2022-08-07T07:40:42.156Z,17.01
2022-08-07T07:43:15.227Z,17.13
2022-08-07T07:46:37.885Z,17.27
2022-08-07T07:48:36.234Z,17.44
2022-08-07T07:51:08.024Z,17.76
2022-08-07T07:53:48.179Z,17.88
2022-08-07T07:56:19.248Z,18.06
2022-08-07T07:59:00.208Z,18.24
2022-08-07T08:02:01.999Z,18.33
2022-08-07T08:04:25.706Z,18.51
2022-08-07T08:06:54.789Z,18.71
2022-08-07T08:09:25.052Z,18.86
2022-08-07T08:12:03.125Z,19.16
2022-08-07T08:14:36.458Z,19.61
2022-08-07T08:17:55.600Z,20.04
2022-08-07T08:20:17.733Z,20.52
2022-08-07T08:22:55.884Z,20.92
2022-08-07T08:25:41.867Z,21.63
2022-08-07T08:28:11.807Z,21.76
2022-08-07T08:30:51.485Z,21.95
2022-08-07T08:33:25.368Z,22.26
2022-08-07T08:35:57.353Z,22.93
2022-08-07T08:38:30.009Z,22.93
2022-08-07T08:41:17.154Z,23.08
2022-08-07T08:44:01.670Z,23.35
2022-08-07T08:46:38.955Z,24.08
2022-08-07T08:49:16.468Z,24.06
2022-08-07T08:52:14.437Z,24.09
2022-08-07T08:55:04.750Z,24.20
2022-08-07T08:57:58.427Z,24.11
2022-08-07T09:00:30.288Z,24.26
2022-08-07T09:03:14.060Z,24.65
2022-08-07T09:06:04.482Z,25.19
2022-08-07T09:08:49.654Z,25.39
2022-08-07T09:11:24.191Z,25.61
2022-08-07T09:14:02.292Z,26.02
2022-08-07T09:16:59.013Z,26.56
2022-08-07T09:19:53.611Z,26.78
2022-08-07T09:24:29.386Z,26.88
2022-08-07T09:25:37.683Z,27.19
2022-08-07T09:28:06.165Z,27.59
2022-08-07T09:31:08.502Z,27.59
2022-08-07T09:33:58.897Z,27.96
2022-08-07T09:36:37.304Z,28.22
2022-08-07T09:39:54.447Z,28.29
2022-08-07T09:42:37.871Z,28.70
2022-08-07T09:47:27.346Z,28.75
2022-08-07T09:50:02.499Z,28.85
2022-08-07T09:52:33.648Z,29.19
2022-08-07T09:55:29.525Z,29.87
2022-08-07T09:58:42.361Z,29.65
2022-08-07T10:01:50.954Z,29.66
2022-08-07T10:04:53.052Z,29.70
2022-08-07T10:07:39.663Z,29.25
2022-08-07T10:11:00.225Z,28.97
2022-08-07T10:14:01.960Z,29.14
2022-08-07T10:16:59.860Z,29.24
2022-08-07T10:19:46.538Z,29.53
2022-08-07T10:22:24.892Z,29.39
2022-08-07T10:25:20.824Z,29.53
2022-08-07T10:28:29.210Z,29.68
2022-08-07T10:31:21.900Z,29.75
2022-08-07T10:34:17.803Z,29.96
2022-08-07T10:37:48.393Z,30.20
2022-08-07T10:40:18.013Z,29.77
2022-08-07T10:43:07.282Z,29.41
2022-08-07T10:45:57.570Z,28.83
2022-08-07T10:49:06.642Z,28.34
2022-08-07T10:52:01.582Z,28.06
2022-08-07T10:55:01.780Z,27.63
2022-08-07T10:57:43.165Z,27.30
2022-08-07T11:00:36.998Z,27.27
2022-08-07T11:03:12.848Z,27.20
2022-08-07T11:06:01.125Z,26.87
2022-08-07T11:08:43.913Z,26.61
2022-08-07T11:11:15.389Z,26.42
2022-08-07T11:14:43.718Z,26.54
2022-08-07T11:16:54.630Z,26.13
2022-08-07T11:19:30.801Z,25.89
2022-08-07T11:22:26.366Z,25.78
2022-08-07T11:25:09.245Z,25.76
2022-08-07T11:28:01.391Z,25.78
2022-08-07T11:30:42.004Z,25.43
2022-08-07T11:33:15.008Z,25.42
2022-08-07T11:36:10.111Z,25.43
2022-08-07T11:38:50.587Z,25.51
2022-08-07T11:41:30.958Z,25.39
2022-08-07T11:44:22.876Z,25.39
2022-08-07T11:47:11.635Z,25.39
2022-08-07T11:50:30.172Z,25.37
2022-08-07T11:53:05.123Z,25.15
2022-08-07T11:56:15.764Z,25.35
2022-08-07T12:00:07.642Z,25.31
2022-08-07T12:02:36.716Z,25.12
2022-08-07T12:05:47.414Z,25.05
2022-08-07T12:08:47.711Z,25.05
2022-08-07T12:11:32.418Z,24.96
2022-08-07T12:14:10.467Z,24.87
2022-08-07T12:16:50.939Z,24.82
2022-08-07T12:19:35.576Z,24.84
2022-08-07T12:22:55.848Z,24.86
2022-08-07T12:26:21.524Z,24.95
2022-08-07T12:28:31.373Z,25.01
2022-08-07T12:31:05.331Z,25.08
2022-08-07T12:34:01.145Z,25.19
2022-08-07T12:36:32.668Z,25.05
2022-08-07T12:39:02.505Z,25.13
2022-08-07T12:41:42.752Z,25.13
2022-08-07T12:44:18.612Z,25.07
2022-08-07T12:47:21.762Z,25.07
2022-08-07T12:50:38.293Z,25.08
2022-08-07T12:53:05.207Z,25.19
2022-08-07T12:56:10.266Z,25.19
2022-08-07T12:58:42.946Z,25.26
2022-08-07T13:01:50.464Z,25.40
2022-08-07T13:04:44.164Z,25.59
2022-08-07T13:08:12.354Z,25.53
2022-08-07T13:10:58.894Z,25.59
2022-08-07T13:13:48.246Z,25.44
2022-08-07T13:16:29.591Z,25.36
2022-08-07T13:19:21.882Z,25.35
2022-08-07T13:22:19.822Z,25.39
2022-08-07T13:25:04.247Z,25.43
2022-08-07T13:28:10.680Z,25.39
2022-08-07T13:30:43.821Z,25.39
2022-08-07T13:34:30.086Z,25.53
2022-08-07T13:36:43.617Z,25.45
2022-08-07T13:39:49.109Z,25.44
2022-08-07T13:42:09.932Z,25.31
2022-08-07T13:44:39.496Z,25.43
2022-08-07T13:47:09.866Z,25.40
2022-08-07T13:50:35.582Z,25.37
2022-08-07T13:52:40.755Z,25.41
2022-08-07T13:55:25.479Z,25.36
2022-08-07T13:58:04.626Z,25.49
2022-08-07T14:00:39.619Z,25.51
2022-08-07T14:03:30.036Z,25.63
2022-08-07T14:06:13.807Z,25.58
2022-08-07T14:08:46.049Z,25.72
2022-08-07T14:11:22.841Z,25.66
2022-08-07T14:13:54.364Z,25.59
2022-08-07T14:16:31.133Z,25.60
2022-08-07T14:19:01.508Z,25.53
2022-08-07T14:22:04.283Z,25.47
2022-08-07T14:24:41.223Z,25.55
2022-08-07T14:27:16.147Z,25.64
2022-08-07T14:30:09.926Z,25.68
2022-08-07T14:32:45.288Z,25.66
2022-08-07T14:35:42.796Z,25.69
2022-08-07T14:38:09.352Z,25.78
2022-08-07T14:40:55.293Z,26.10
2022-08-07T14:43:55.533Z,26.00
2022-08-07T14:46:11.607Z,26.14
2022-08-07T14:48:48.366Z,26.02
2022-08-07T14:51:22.385Z,26.04
2022-08-07T14:56:41.466Z,25.80
2022-08-07T14:59:13.680Z,25.91
2022-08-07T15:02:31.727Z,25.99
2022-08-07T15:04:57.196Z,26.05
2022-08-07T15:07:47.394Z,26.01
2022-08-07T15:13:05.806Z,26.03
2022-08-07T15:13:16.447Z,26.01
2022-08-07T15:15:52.600Z,26.11
2022-08-07T15:18:30.238Z,26.06
2022-08-07T15:21:07.998Z,25.92
2022-08-07T15:26:44.475Z,25.83
2022-08-07T15:32:05.569Z,25.86
2022-08-07T15:38:04.476Z,25.72
2022-08-07T15:40:34.723Z,25.73
2022-08-07T15:43:53.314Z,25.83
2022-08-07T15:46:34.332Z,25.92
2022-08-07T15:49:12.844Z,25.74
2022-08-07T15:54:30.904Z,25.59
2022-08-07T15:57:02.922Z,25.60
2022-08-07T15:59:39.148Z,25.50
2022-08-07T16:02:09.217Z,25.56
2022-08-07T16:04:42.619Z,25.44
2022-08-07T16:08:28.416Z,25.41
2022-08-07T16:10:14.724Z,25.55
2022-08-07T16:14:00.068Z,25.63
2022-08-07T16:16:42.772Z,25.47
2022-08-07T16:19:42.910Z,25.53
2022-08-07T16:22:36.431Z,25.42
2022-08-07T16:25:55.035Z,25.46
2022-08-07T16:30:06.824Z,25.31
2022-08-07T16:32:34.810Z,25.27
2022-08-07T16:35:58.711Z,25.24
2022-08-07T16:38:50.754Z,25.23
2022-08-07T16:41:41.554Z,25.19
2022-08-07T16:44:55.490Z,25.29
2022-08-07T16:47:52.921Z,25.39
2022-08-07T16:50:52.744Z,25.40
2022-08-07T16:54:02.714Z,25.42
2022-08-07T16:56:55.524Z,25.37
2022-08-07T16:59:50.326Z,25.32
2022-08-07T17:02:53.350Z,25.34
2022-08-07T17:06:19.466Z,25.31
2022-08-07T17:09:13.890Z,25.31
2022-08-07T17:12:34.490Z,25.28
2022-08-07T17:15:15.570Z,25.16
2022-08-07T17:17:48.034Z,25.15
2022-08-07T17:20:30.003Z,25.22
2022-08-07T17:23:12.824Z,25.20
2022-08-07T17:25:56.161Z,25.10
2022-08-07T17:28:49.906Z,24.97
2022-08-07T17:31:22.761Z,24.93
2022-08-07T17:34:17.938Z,24.91
2022-08-07T17:37:08.958Z,24.78
2022-08-07T17:39:57.754Z,24.74
2022-08-07T17:42:59.383Z,24.66
2022-08-07T17:45:35.108Z,24.66
2022-08-07T17:48:31.115Z,24.67
2022-08-07T17:52:00.841Z,24.60
2022-08-07T17:54:29.548Z,24.68
2022-08-07T17:57:19.119Z,24.75
2022-08-07T17:59:52.223Z,24.73
2022-08-07T18:02:41.324Z,24.68
2022-08-07T18:06:03.467Z,24.55
2022-08-07T18:08:31.211Z,24.44
2022-08-07T18:12:08.365Z,24.34
2022-08-07T18:14:24.353Z,24.14
2022-08-07T18:16:57.387Z,23.96
2022-08-07T18:21:05.947Z,23.86
2022-08-07T18:22:40.032Z,23.74
2022-08-07T18:25:19.393Z,23.69
2022-08-07T18:27:54.068Z,23.62
2022-08-07T18:30:38.555Z,23.53
2022-08-07T18:33:37.879Z,23.38
2022-08-07T18:36:32.856Z,23.28
2022-08-07T18:40:06.915Z,23.15
2022-08-07T18:42:07.159Z,23.02
2022-08-07T18:45:43.814Z,22.91
2022-08-07T18:49:03.677Z,22.77
2022-08-07T18:51:14.900Z,22.65
2022-08-07T18:54:03.346Z,22.52
2022-08-07T18:57:23.413Z,22.37
2022-08-07T19:00:33.200Z,22.22
2022-08-07T19:03:03.174Z,22.04
2022-08-07T19:06:03.498Z,21.92
2022-08-07T19:08:47.485Z,21.79
2022-08-07T19:11:35.779Z,21.63
2022-08-07T19:14:39.097Z,21.50
2022-08-07T19:17:55.889Z,21.40
2022-08-07T19:20:29.032Z,21.26
2022-08-07T19:23:56.912Z,21.14
2022-08-07T19:26:24.957Z,21.06
2022-08-07T19:30:54.223Z,21.07
2022-08-07T19:32:07.969Z,20.98
2022-08-07T19:34:39.370Z,20.86
2022-08-07T19:37:17.323Z,20.71
2022-08-07T19:39:56.405Z,20.66
2022-08-07T19:42:30.283Z,20.52
2022-08-07T19:45:09.386Z,20.45
2022-08-07T19:47:42.106Z,20.40
2022-08-07T19:50:41.574Z,20.33
2022-08-07T19:52:58.638Z,20.24
2022-08-07T19:55:56.435Z,20.17
2022-08-07T19:58:15.781Z,20.04
2022-08-07T20:00:55.327Z,19.99
2022-08-07T20:03:35.079Z,19.83
2022-08-07T20:06:03.902Z,19.76
2022-08-07T20:08:35.930Z,19.79
2022-08-07T20:11:10.184Z,19.70
2022-08-07T20:13:51.704Z,19.68
2022-08-07T20:16:34.801Z,19.56
2022-08-07T20:19:06.084Z,19.47
2022-08-07T20:21:41.974Z,19.40
2022-08-07T20:24:20.073Z,19.38
2022-08-07T20:26:50.251Z,19.30
2022-08-07T20:29:48.703Z,19.18
2022-08-07T20:32:23.011Z,19.12
2022-08-07T20:34:56.353Z,19.02
2022-08-07T20:37:59.058Z,18.94
2022-08-07T20:40:33.541Z,18.85
2022-08-07T20:43:02.732Z,18.80
2022-08-07T20:45:33.808Z,18.69
2022-08-07T20:48:28.881Z,18.59
2022-08-07T20:50:59.010Z,18.52
2022-08-07T20:54:04.420Z,18.46
2022-08-07T20:56:16.197Z,18.42
2022-08-07T20:58:46.632Z,18.41
2022-08-07T21:01:19.355Z,18.36
2022-08-07T21:04:13.065Z,18.27
2022-08-07T21:06:46.058Z,18.19
2022-08-07T21:09:20.219Z,18.13
2022-08-07T21:11:52.586Z,18.11
2022-08-07T21:14:32.809Z,18.07
2022-08-07T21:18:00.890Z,18.00
2022-08-07T21:20:04.551Z,17.88
2022-08-07T21:22:38.998Z,17.85
2022-08-07T21:25:13.648Z,17.76
2022-08-07T21:28:01.772Z,17.68
2022-08-07T21:31:03.171Z,17.65
2022-08-07T21:33:58.456Z,17.55
2022-08-07T21:36:51.133Z,17.44
2022-08-07T21:39:47.772Z,17.38
2022-08-07T21:42:42.605Z,17.34
2022-08-07T21:46:08.813Z,17.30
2022-08-07T21:48:42.324Z,17.25
2022-08-07T21:51:27.479Z,17.22
2022-08-07T21:54:05.062Z,17.13
2022-08-07T21:57:16.131Z,17.08
2022-08-07T22:00:25.184Z,17.07
2022-08-07T22:03:30.567Z,17.01
2022-08-07T22:06:07.553Z,16.92
2022-08-07T22:08:56.549Z,16.84
2022-08-07T22:11:30.550Z,16.82
2022-08-07T22:14:15.264Z,16.74
2022-08-07T22:16:58.561Z,16.65
2022-08-07T22:19:57.254Z,16.65
2022-08-07T22:22:30.044Z,16.56
2022-08-07T22:24:59.897Z,16.58
2022-08-07T22:27:34.206Z,16.53
2022-08-07T22:30:20.807Z,16.45
2022-08-07T22:33:02.947Z,16.36
2022-08-07T22:35:40.295Z,16.33
2022-08-07T22:38:28.513Z,16.30
2022-08-07T22:41:03.214Z,16.27
2022-08-07T22:43:40.855Z,16.24
2022-08-07T22:47:06.293Z,16.15
2022-08-07T22:50:06.561Z,16.04
2022-08-07T22:52:51.072Z,16.01
2022-08-07T22:55:29.770Z,15.95
2022-08-07T22:58:37.636Z,15.93
2022-08-07T23:01:50.302Z,15.90
2022-08-07T23:04:58.362Z,15.77
2022-08-07T23:07:42.030Z,15.76
2022-08-07T23:10:52.397Z,15.73
2022-08-07T23:13:29.453Z,15.70
2022-08-07T23:16:46.419Z,15.61
2022-08-07T23:19:48.403Z,15.56
2022-08-07T23:22:32.241Z,15.49
2022-08-07T23:25:01.340Z,15.44
2022-08-07T23:28:21.053Z,15.41
2022-08-07T23:31:11.255Z,15.40
2022-08-07T23:34:34.700Z,15.41
2022-08-07T23:37:20.421Z,15.34
2022-08-07T23:40:14.396Z,15.32
2022-08-07T23:43:04.343Z,15.28
2022-08-07T23:46:23.796Z,15.23
2022-08-07T23:49:50.788Z,15.18
2022-08-07T23:53:00.749Z,15.16
2022-08-07T23:55:47.189Z,15.09
2022-08-07T23:58:54.675Z,15.04
